Thor Industries Institutional Ownership (NYSE:THO)

$54.22
+0.47 (+0.87 %)
(As of 09/23/2019 06:00 AM ET)
Today's Range
$53.6982
Now: $54.22
$54.99
50-Day Range
$42.69
MA: $48.83
$58.11
52-Week Range
$42.05
Now: $54.22
$93.67
Volume761,361 shs
Average Volume904,667 shs
Market Capitalization$2.99 billion
P/E Ratio6.34
Dividend Yield2.90%
Beta1.93

Institutional Ownership

Institutional Ownership Changes (13F Filings) for Thor Industries (NYSE:THO)

Institutional Ownership Percentage: 89.63%

Thor Industries (NYSE THO) Institutional Buying and Selling

Reporting DateHedge FundShares HeldMarket Value% of PortfolioQuarterly Change in SharesOwnership in Company
9/3/2019Van Berkom & Associates Inc.859,026$50.21M1.5%+3.5%1.560%
8/26/2019Toronto Dominion Bank4,144$0.40M0.0%N/A0.008%
8/26/2019Atria Investments LLC6,616$0.31M0.0%-9.6%0.012%
8/23/2019Treasurer of the State of North Carolina26,038$1.52M0.0%+25.0%0.047%
8/23/2019Nomura Holdings Inc.4,000$0.23M0.0%N/A0.007%
8/23/2019BlackRock Inc.4,842,450$283.04M0.0%+4.5%8.795%
8/20/2019Vestmark Advisory Solutions Inc.11,478$0.67M0.1%+10.0%0.021%
8/17/2019Kayne Anderson Rudnick Investment Management LLC2,043,739$119.46M0.6%+0.0%3.712%
8/17/2019Royal Bank of Canada140,834$8.23M0.0%+18.2%0.256%
8/17/2019UBS Group AG253,904$14.84M0.0%+81.5%0.461%
8/17/2019HM Payson & Co.1,540$90K0.0%N/A0.003%
8/17/2019Ladenburg Thalmann Financial Services Inc.7,888$0.46M0.0%+64.5%0.014%
8/17/2019Private Capital Group LLC1,084$0.11M0.0%+136.7%0.002%
8/16/2019First Manhattan Co.1,450$84K0.0%N/A0.003%
8/16/2019Amundi Pioneer Asset Management Inc.5,716$0.33M0.0%-88.4%0.010%
8/15/2019Cambridge Investment Research Advisors Inc.8,434$0.49M0.0%+6.8%0.015%
8/15/2019Voloridge Investment Management LLC54,623$3.19M0.1%+7.6%0.099%
8/15/2019Schroder Investment Management Group29,700$1.74M0.0%-91.4%0.054%
8/15/2019Nuveen Asset Management LLC114,681$6.70M0.0%N/A0.208%
8/15/2019Price T Rowe Associates Inc. MD28,152$1.65M0.0%+3.1%0.051%
8/15/2019OneAscent Financial Services LLC4,947$0.29M0.2%N/A0.009%
8/15/2019UBS Asset Management Americas Inc.122,470$7.16M0.0%+92.8%0.222%
8/14/2019Point72 Hong Kong Ltd2,453$0.14M0.0%+226.2%0.004%
8/14/2019Hilltop Holdings Inc.3,896$0.23M0.0%-21.9%0.007%
8/14/2019Marshall Wace LLP50,271$2.94M0.0%+1,268.3%0.091%
8/14/2019Nomura Holdings Inc.4,000$0.23M0.0%N/A0.007%
8/14/2019Morgan Stanley56,759$3.32M0.0%-48.7%0.103%
8/14/2019AQR Capital Management LLC3,795$0.22M0.0%-29.4%0.007%
8/14/2019Paloma Partners Management Co13,714$0.80M0.0%+266.3%0.025%
8/14/2019Man Group plc11,400$0.67M0.0%-69.3%0.021%
8/14/2019Bank of America Corp DE139,397$8.15M0.0%+3.9%0.253%
8/14/2019Marshall Wace North America L.P.40,797$2.39M0.0%N/A0.074%
8/14/2019Invesco Ltd.351,823$20.56M0.0%+10.1%0.639%
8/14/2019Vanguard Group Inc.4,797,441$280.41M0.0%-0.1%8.713%
8/14/2019Private Advisor Group LLC3,736$0.22M0.0%-34.0%0.007%
8/14/2019AMP Capital Investors Ltd4,300$0.25M0.0%-61.1%0.008%
8/14/2019A.R.T. Advisors LLC4,991$0.29M0.0%N/A0.009%
8/14/2019Holocene Advisors LP14,012$0.82M0.0%+118.0%0.025%
8/14/2019Sprott Inc.150,000$8.77M2.1%+7.1%0.272%
8/13/2019Lodge Hill Capital LLC120,000$7.01M1.7%N/A0.218%
8/13/2019Tower Research Capital LLC TRC8,796$0.51M0.0%+91.8%0.016%
8/13/2019BlackRock Inc.4,842,450$283.04M0.0%+4.5%8.794%
8/13/2019US Bancorp DE7,471$0.44M0.0%-48.0%0.014%
8/13/2019HighTower Advisors LLC46,515$2.72M0.0%+0.8%0.084%
8/13/2019United Capital Financial Advisers LLC248,514$14.53M0.1%+13.0%0.451%
8/13/2019Captrust Financial Advisors1,000$59K0.0%+122.2%0.002%
8/13/2019Parametric Portfolio Associates LLC99,744$5.83M0.0%-11.9%0.181%
8/13/2019MML Investors Services LLC5,123$0.30M0.0%-8.6%0.009%
8/13/2019Toronto Dominion Bank4,144$0.40M0.0%N/A0.008%
8/13/2019Cibc World Markets Corp111,100$6.49M0.1%N/A0.202%
8/13/2019South Dakota Investment Council186,100$10.88M0.2%+10.6%0.338%
8/13/2019Commonwealth Bank of Australia9,300$0.54M0.0%+72.2%0.017%
8/13/2019Aptus Capital Advisors LLC22,427$1.31M0.2%-16.6%0.041%
8/13/2019Northern Trust Corp424,562$24.82M0.0%-1.6%0.771%
8/13/2019Canada Pension Plan Investment Board33,467$1.96M0.0%-24.5%0.061%
8/13/2019Natixis Advisors L.P.147,222$8.61M0.1%+15.4%0.267%
8/13/2019BerganKDV Wealth Management LLC9,861$0.58M0.1%-5.4%0.018%
8/13/2019Alexandria Capital LLC66,190$3.87M0.6%-1.8%0.120%
8/12/2019Public Employees Retirement System of Ohio36,485$2.13M0.0%-60.8%0.066%
8/12/2019Aviance Capital Partners LLC16,023$0.94M0.3%N/A0.029%
8/12/2019Pacer Advisors Inc.35,122$2.05M0.1%+389.7%0.064%
8/12/2019Cadence Capital Management LLC12,317$0.72M0.1%-2.3%0.022%
8/12/2019Renaissance Technologies LLC412,500$24.11M0.0%+146.6%0.749%
8/12/2019Chilton Investment Co. LLC6,920$0.40M0.0%-98.9%0.013%
8/12/2019Mork Capital Management LLC26,000$1.52M1.4%N/A0.047%
8/12/2019Bank of New York Mellon Corp903,281$52.80M0.0%+4.2%1.641%
8/12/2019Intrust Bank NA7,899$0.46M0.1%-16.8%0.014%
8/12/2019Bahl & Gaynor Inc.26,881$1.57M0.0%+1.4%0.049%
8/12/2019Pearl River Capital LLC1,402$82K0.5%+70,000.0%0.003%
8/10/2019LPL Financial LLC3,698$0.22M0.0%-40.2%0.007%
8/10/2019Charles Schwab Investment Management Inc.537,039$31.39M0.0%+6.0%0.975%
8/10/2019Oppenheimer Asset Management Inc.55,062$3.22M0.1%-5.6%0.100%
8/10/2019Oppenheimer & Co. Inc.31,623$1.85M0.1%-44.4%0.057%
8/9/2019Atria Investments LLC16,992$0.46M0.0%+132.1%0.031%
8/9/2019Bank of Montreal Can109,747$6.41M0.0%+257.2%0.199%
8/9/2019Panagora Asset Management Inc.129,045$7.54M0.0%-20.5%0.234%
8/9/2019Weik Capital Management15,895$0.93M0.4%+14.1%0.029%
8/9/2019Russell Investments Group Ltd.17,415$1.02M0.0%-82.0%0.032%
8/9/2019Prudential Financial Inc.395,185$23.10M0.0%-18.7%0.718%
8/9/2019Schroder Investment Management Group29,700$1.74M0.0%-91.4%0.054%
8/8/2019Heartland Advisors Inc.201,661$11.79M0.9%-0.2%0.366%
8/8/2019LSV Asset Management1,032,740$60.36M0.1%-0.5%1.876%
8/8/2019Allianz Asset Management GmbH31,110$1.82M0.0%+28.1%0.057%
8/8/2019Carillon Tower Advisers Inc.321,711$18.80M0.1%-31.7%0.584%
8/7/2019BB&T Securities LLC44,444$2.60M0.0%+6.3%0.081%
8/7/2019Alps Advisors Inc.12,108$0.71M0.0%+17.2%0.022%
8/7/2019Janus Henderson Group PLC1,375,171$80.38M0.0%-0.3%2.497%
8/7/2019First Republic Investment Management Inc.9,910$0.58M0.0%-14.1%0.018%
8/7/2019LS Investment Advisors LLC2,698$0.16M0.0%-6.5%0.005%
8/7/2019Connor Clark & Lunn Investment Management Ltd.46,315$2.71M0.0%-67.2%0.084%
8/7/2019JPMorgan Chase & Co.270,377$15.75M0.0%-23.2%0.491%
8/7/2019Beacon Investment Advisory Services Inc.62,732$3.67M0.4%+0.5%0.114%
8/6/2019Stone Ridge Asset Management LLC60,768$3.55M0.2%+4.5%0.110%
8/6/2019Palouse Capital Management Inc.3,879$0.23M0.1%-25.1%0.007%
8/6/2019Hutchinson Capital Management CA154,711$9.04M2.5%+0.9%0.281%
8/6/2019ACG Wealth17,990$1.05M0.1%+168.2%0.033%
8/6/2019New Mexico Educational Retirement Board9,000$0.53M0.0%-10.9%0.016%
8/5/2019Alpine Woods Capital Investors LLC7,000$0.41M0.1%-41.7%0.013%
8/5/2019Bbva USA Bancshares Inc.13,599$0.80M0.0%+69.8%0.025%
8/5/2019State Board of Administration of Florida Retirement System59,524$3.48M0.0%-8.4%0.108%
(Data available from 1/1/2016 forward)
This page was last updated on 9/23/2019 by MarketBeat.com Staff

Enter your email address below to receive a concise daily summary of analysts' upgrades, downgrades and new coverage with MarketBeat.com's FREE daily email newsletter.

Yahoo Gemini Pixel